x

Sand Key, Fl (sanf1) Weather Station

3:50am - Tue 29th Jul 2014 All times are CDT. -4 hours from GMT.

  • Wind
    6mph, 7mph gusts
  • Air Temp 85°f
  • Sea Pressure 1016.2mb
  • Sand Key, Fl
  • Sand Key, Fl

More Historic Weather Station data

Upgrade to MSW Pro to gain access to the past 30 days of data for over 8000 Wavebouys and Weather Stations around the globe.

Join Pro

Comparision Forecast

View Surf forecast
   
Tue 07/29 3:50am 6 7 mph 1016.2mb 85f
2:50am 3 5 mph 1016.8mb 85f
1:50am 2 5 mph 1017.6mb 85f
12:50am 5 7 mph 1018.1mb 85f
Mon 07/28 11:50pm 2 3 mph 1017.9mb 86f
10:50pm 5 6 mph 1017.8mb 86f
9:50pm 3 6 mph 1017.5mb 86f
8:50pm 3 5 mph 1017.3mb 86f
7:50pm 5 6 mph 1017.4mb 86f
6:50pm 6 8 mph 1017.3mb 86f
5:50pm 3 6 mph 1017.4mb 86f
4:50pm 5 7 mph 1017.6mb 86f
3:50pm 3 6 mph 1017.9mb 86f
2:50pm 6 7 mph 1018.7mb 86f
1:50pm 2 3 mph 1019.1mb 87f
12:50pm  -  2 mph 1019.3mb 87f
11:50am 1 2 mph 1019.4mb 86f
10:50am 2
mph
1019.3mb 86f
9:50am 3 5 mph 1019mb 85f
8:50am 3 6 mph 1018.8mb 85f
7:50am 7 8 mph 1018.3mb 84f
6:50am 5 6 mph 1018mb 84f
5:50am 5 6 mph 1017.5mb 84f
4:50am 3 6 mph 1017.5mb 84f
3:50am 6 8 mph 1018.1mb 84f
2:50am 9 11 mph 1018.6mb 84f
1:50am 9 11 mph 1019.1mb 84f
12:50am 9 13 mph 1019.2mb 85f
Sun 07/27 11:50pm 7 10 mph 1019.2mb 85f
10:50pm 6 8 mph 1019.1mb 85f
9:50pm 5 7 mph 1018.6mb 85f
8:50pm 5 6 mph 1018.5mb 85f
7:50pm 5 6 mph 1018.7mb 85f
6:50pm 5 8 mph 1018.7mb 85f
5:50pm 6 7 mph 1018.5mb 85f
4:50pm 6 7 mph 1018.4mb 85f
3:50pm 5 7 mph 1018.9mb 85f
2:50pm 3 6 mph 1019.3mb 85f
1:50pm 5 8 mph 1019.8mb 85f
12:50pm 6 8 mph 1020.1mb 85f
11:50am 10 11 mph 1020.2mb 85f
10:50am 9 11 mph 1020mb 84f
9:50am 8 10 mph 1019.9mb 85f
8:50am 6 7 mph 1019.7mb 85f
7:50am 3 6 mph 1019.1mb 84f
6:50am 6 8 mph 1018.6mb 84f
5:50am 7 9 mph 1018mb 84f
4:50am 9 11 mph 1017.7mb 84f
3:50am 14 16 mph 1017.7mb 84f
2:50am 13 14 mph 1017.9mb 84f
1:50am 13 15 mph 1018.3mb 84f
12:50am 16 18 mph 1018.8mb 85f
Sat 07/26 11:50pm 17 21 mph 1019.2mb 85f
10:50pm 13 16 mph 1019.3mb 85f
9:50pm 10 14 mph 1018.9mb 84f
8:50pm 9 13 mph 1018.3mb 85f
7:50pm 8 10 mph 1017.9mb 85f
6:50pm 7 9 mph 1018mb 85f
5:50pm 8 10 mph 1018.3mb 85f
4:50pm 6 8 mph 1018.6mb 85f
3:50pm 9 11 mph 1018.6mb 85f
2:50pm 6 8 mph 1019.2mb 85f
1:50pm 7 10 mph 1019.5mb 85f
12:50pm 10 13 mph 1019.6mb 85f
11:50am 8 11 mph 1020.1mb 85f
10:50am 10 13 mph 1019.4mb 85f
9:50am 11 14 mph 1019.1mb 85f
8:50am 10 14 mph 1018.6mb 85f
7:50am 11 14 mph 1018mb 84f
6:50am 14 16 mph 1017.5mb 84f
5:50am 15 17 mph 1017mb 84f
4:50am 13 16 mph 1016.8mb 85f
3:50am 14 16 mph 1017.2mb 85f
2:50am 14 16 mph 1017.4mb 85f
1:50am 14 16 mph 1018.4mb 85f
12:50am 14 15 mph 1018.8mb 85f
Fri 07/25 11:50pm 11 13 mph 1018.6mb 85f
10:50pm 8 10 mph 1018.6mb 85f
9:50pm 8 10 mph 1018.3mb 85f
8:50pm 8 9 mph 1017.5mb 85f
7:50pm 6 8 mph 1016.9mb 85f
6:50pm 5 6 mph 1017mb 86f
5:50pm 7 9 mph 1016.8mb 86f
4:50pm 7 9 mph 1017.1mb 85f
3:50pm 7 9 mph 1017.4mb 85f
2:50pm 6 8 mph 1018mb 85f
1:50pm 6 8 mph 1018.6mb 85f
12:50pm 7 8 mph 1018.8mb 85f
11:50am 9 10 mph 1019mb 85f
10:50am 7 9 mph 1019.1mb 85f
9:50am 10 13 mph 1018.9mb 85f